Time;durP1;ratioP1;P1;durP2;ratioP2;P2;SDS_P1;SDS_P2;PMS_P1;PMS_P2;Temp;Humidity;BMP_temperature;BMP_pressure;BME280_temperature;BME280_humidity;BME280_pressure;Samples;Min_cycle;Max_cycle;Signal;HPM_P1;HPM_P2
2023/12/21 00:00:44;;;;;;;5.63;3.10;;;11.50;99.90;;;;;;5042949;28;20177;-82
2023/12/21 00:03:10;;;;;;;5.00;2.53;;;11.50;99.90;;;;;;5024599;28;20269;-82
2023/12/21 00:05:35;;;;;;;4.40;3.00;;;11.50;99.90;;;;;;5041036;28;20188;-81
2023/12/21 00:08:01;;;;;;;2.63;1.97;;;11.50;99.90;;;;;;5042187;28;20173;-81
2023/12/21 00:10:27;;;;;;;3.60;1.20;;;11.50;99.90;;;;;;5028811;28;20264;-80
2023/12/21 00:12:53;;;;;;;1.83;1.10;;;11.50;99.90;;;;;;5028507;28;20173;-79
2023/12/21 00:15:18;;;;;;;3.00;0.80;;;11.50;99.90;;;;;;5049598;28;20250;-80
2023/12/21 00:17:44;;;;;;;2.03;0.80;;;11.50;99.90;;;;;;5044127;28;20228;-80
2023/12/21 00:20:10;;;;;;;1.87;0.93;;;11.50;99.90;;;;;;5047103;28;20181;-81
2023/12/21 00:22:35;;;;;;;1.93;0.87;;;11.60;99.90;;;;;;5043901;28;20631;-81
2023/12/21 00:25:01;;;;;;;1.37;0.73;;;11.60;99.90;;;;;;5037590;28;20974;-82
2023/12/21 00:27:27;;;;;;;1.87;0.53;;;11.60;99.90;;;;;;5044515;28;20605;-81
2023/12/21 00:29:52;;;;;;;1.50;0.60;;;11.60;99.90;;;;;;5045950;28;20181;-80
2023/12/21 00:32:18;;;;;;;1.30;0.80;;;11.60;99.90;;;;;;5045265;28;20230;-81
2023/12/21 00:34:44;;;;;;;2.77;0.70;;;11.70;99.90;;;;;;5030396;28;20185;-81
2023/12/21 00:37:09;;;;;;;1.87;0.90;;;11.70;99.90;;;;;;5032600;28;20301;-81
2023/12/21 00:39:35;;;;;;;1.57;0.80;;;11.70;99.90;;;;;;5041125;28;20189;-81
2023/12/21 00:42:01;;;;;;;1.83;0.70;;;11.70;99.90;;;;;;5040493;28;20174;-81
2023/12/21 00:44:26;;;;;;;1.50;0.80;;;11.70;99.90;;;;;;5049186;28;20198;-81
2023/12/21 00:46:52;;;;;;;2.17;0.80;;;11.70;99.90;;;;;;5049682;28;20258;-81
2023/12/21 00:49:18;;;;;;;3.97;0.90;;;11.70;99.90;;;;;;5054288;28;20174;-81
2023/12/21 00:51:43;;;;;;;1.57;0.73;;;11.80;99.90;;;;;;5033113;28;20174;-81
2023/12/21 00:54:09;;;;;;;2.80;0.67;;;11.70;99.90;;;;;;5032399;28;20268;-81
2023/12/21 00:56:35;;;;;;;1.50;0.70;;;11.70;99.90;;;;;;5032221;28;20836;-81
2023/12/21 00:59:00;;;;;;;1.43;0.70;;;11.70;99.90;;;;;;5040796;28;20184;-81
2023/12/21 01:01:27;;;;;;;2.50;0.70;;;11.70;99.90;;;;;;5039530;28;20170;-81
2023/12/21 01:03:52;;;;;;;1.93;0.70;;;11.70;99.90;;;;;;5041376;28;20209;-81
2023/12/21 01:06:18;;;;;;;1.40;0.90;;;11.70;99.90;;;;;;5033875;28;20201;-80
2023/12/21 01:08:44;;;;;;;1.50;0.83;;;11.70;99.90;;;;;;5044003;28;20591;-80
2023/12/21 01:11:10;;;;;;;1.80;0.90;;;11.70;99.90;;;;;;5043210;28;20642;-81
2023/12/21 01:13:37;;;;;;;2.40;0.90;;;11.70;99.90;;;;;;5043762;28;20248;-82
2023/12/21 01:16:03;;;;;;;3.15;0.90;;;11.70;99.90;;;;;;5019012;28;20249;-81
2023/12/21 01:18:29;;;;;;;1.40;0.80;;;11.70;99.90;;;;;;5027111;28;20256;-81
2023/12/21 01:20:55;;;;;;;2.03;0.90;;;11.70;99.90;;;;;;5031707;28;20656;-81
2023/12/21 01:23:21;;;;;;;1.80;0.90;;;11.70;99.90;;;;;;5041332;28;20204;-81
2023/12/21 01:25:46;;;;;;;2.75;0.95;;;11.70;99.90;;;;;;5039665;28;20610;-81
2023/12/21 01:28:12;;;;;;;1.73;0.90;;;11.70;99.90;;;;;;5047832;28;20197;-81
2023/12/21 01:30:38;;;;;;;3.60;1.37;;;11.70;99.90;;;;;;5055569;28;20264;-81
2023/12/21 01:33:04;;;;;;;1.50;0.80;;;11.70;99.90;;;;;;5040656;28;20531;-81
2023/12/21 01:35:29;;;;;;;1.93;1.00;;;11.70;99.90;;;;;;5052550;28;20173;-82
2023/12/21 01:37:55;;;;;;;2.30;0.90;;;11.70;99.90;;;;;;5028776;28;20607;-74
2023/12/21 01:40:23;;;;;;;3.60;1.27;;;11.70;99.90;;;;;;5031135;28;20644;-74
2023/12/21 01:42:48;;;;;;;1.60;1.00;;;11.70;99.90;;;;;;5030498;28;20209;-74
2023/12/21 01:45:14;;;;;;;1.90;1.03;;;11.70;99.90;;;;;;5040638;28;20527;-73
2023/12/21 01:47:41;;;;;;;1.70;1.00;;;11.70;99.90;;;;;;5030769;28;20619;-74
2023/12/21 01:50:08;;;;;;;3.65;1.13;;;11.70;99.90;;;;;;5032434;28;20624;-74
2023/12/21 01:52:35;;;;;;;1.95;1.05;;;11.70;99.90;;;;;;5031113;28;20260;-74
2023/12/21 01:55:02;;;;;;;1.95;0.88;;;11.80;99.90;;;;;;5031036;28;20209;-74
2023/12/21 01:57:27;;;;;;;2.42;0.95;;;11.70;99.90;;;;;;5039729;28;20672;-72
2023/12/21 01:59:54;;;;;;;2.00;0.90;;;11.70;99.90;;;;;;5031063;28;20201;-72
2023/12/21 02:02:19;;;;;;;1.50;0.80;;;11.70;99.90;;;;;;5029948;28;20632;-72
2023/12/21 02:04:46;;;;;;;5.47;1.00;;;11.70;99.90;;;;;;5030607;28;20631;-72
2023/12/21 02:07:12;;;;;;;2.75;0.70;;;11.80;99.90;;;;;;5038259;28;20197;-72
2023/12/21 02:09:38;;;;;;;1.20;0.60;;;11.70;99.90;;;;;;5029754;28;20646;-73
2023/12/21 02:12:18;;;;;;;1.40;0.75;;;11.70;99.90;;;;;;5030237;28;20687;-72
2023/12/21 02:14:44;;;;;;;2.60;0.70;;;11.80;99.90;;;;;;5014157;28;20182;-73
2023/12/21 02:17:14;;;;;;;2.10;0.97;;;11.70;99.90;;;;;;5013804;28;20680;-73
2023/12/21 02:19:40;;;;;;;1.40;0.65;;;11.80;99.90;;;;;;5030359;28;20268;-73
2023/12/21 02:22:07;;;;;;;1.40;0.70;;;11.80;99.90;;;;;;5029137;28;20277;-73
2023/12/21 02:24:33;;;;;;;1.60;0.80;;;11.80;99.90;;;;;;5027922;28;20644;-73
2023/12/21 02:27:00;;;;;;;2.92;0.80;;;11.80;99.90;;;;;;5029781;28;20200;-74
2023/12/21 02:29:25;;;;;;;1.40;0.95;;;11.80;99.90;;;;;;5029604;28;20177;-73
2023/12/21 02:31:51;;;;;;;2.90;0.60;;;11.80;99.90;;;;;;5029255;28;20173;-73
2023/12/21 02:34:17;;;;;;;1.23;0.60;;;11.80;99.90;;;;;;5029622;28;20185;-73
2023/12/21 02:36:42;;;;;;;1.30;0.67;;;11.80;99.90;;;;;;5029547;28;20209;-73
2023/12/21 02:39:08;;;;;;;1.50;0.63;;;11.90;99.90;;;;;;5029571;28;20181;-73
2023/12/21 02:41:34;;;;;;;2.00;0.70;;;11.90;99.90;;;;;;5040600;28;20332;-73
2023/12/21 02:43:59;;;;;;;1.53;0.80;;;11.90;99.90;;;;;;5034235;28;20231;-73
2023/12/21 02:46:26;;;;;;;1.83;1.00;;;11.90;99.90;;;;;;5012768;28;20189;-73
2023/12/21 02:48:52;;;;;;;1.70;0.70;;;11.90;99.90;;;;;;5028986;28;20176;-73
2023/12/21 02:51:18;;;;;;;1.40;0.70;;;11.90;99.90;;;;;;5028917;28;20588;-73
2023/12/21 02:53:44;;;;;;;1.43;0.63;;;11.90;99.90;;;;;;5021988;28;20588;-73
2023/12/21 02:56:09;;;;;;;2.53;0.80;;;11.90;99.90;;;;;;5030656;28;20208;-73
2023/12/21 02:58:36;;;;;;;2.07;0.90;;;11.90;99.90;;;;;;5029330;28;20178;-73
2023/12/21 03:01:02;;;;;;;2.03;0.90;;;11.90;99.90;;;;;;5028960;28;20623;-74
2023/12/21 03:03:28;;;;;;;1.50;0.70;;;11.90;99.90;;;;;;5029170;28;20643;-73
2023/12/21 03:05:54;;;;;;;1.97;0.87;;;11.90;99.90;;;;;;5029243;28;20661;-73
2023/12/21 03:08:20;;;;;;;1.30;0.60;;;11.90;99.90;;;;;;5029016;28;20585;-73
2023/12/21 03:10:46;;;;;;;2.15;0.88;;;11.80;99.90;;;;;;5036813;28;20261;-73
2023/12/21 03:13:11;;;;;;;2.07;1.00;;;11.80;99.90;;;;;;5029271;28;20328;-73
2023/12/21 03:15:37;;;;;;;2.10;0.93;;;11.80;99.90;;;;;;5038569;28;20616;-74
2023/12/21 03:18:03;;;;;;;1.55;0.80;;;11.80;99.90;;;;;;5038489;28;20202;-73
2023/12/21 03:20:29;;;;;;;3.20;0.73;;;11.80;99.90;;;;;;5012282;28;20205;-74
2023/12/21 03:22:55;;;;;;;1.50;0.70;;;11.70;99.90;;;;;;5028182;28;20201;-73
2023/12/21 03:25:20;;;;;;;1.73;0.70;;;11.80;99.90;;;;;;5029059;28;20276;-74
2023/12/21 03:27:47;;;;;;;3.40;1.00;;;11.70;99.90;;;;;;5034801;28;20192;-73
2023/12/21 03:30:13;;;;;;;1.58;0.70;;;11.70;99.90;;;;;;5015977;28;20263;-73
2023/12/21 03:32:39;;;;;;;2.27;0.93;;;11.70;99.90;;;;;;5036399;28;20182;-74
2023/12/21 03:35:08;;;;;;;2.60;0.93;;;11.70;99.90;;;;;;5028810;28;20593;-73
2023/12/21 03:37:33;;;;;;;1.10;0.60;;;11.70;99.90;;;;;;5029473;28;20616;-73
2023/12/21 03:39:59;;;;;;;2.17;0.60;;;11.70;99.90;;;;;;5029054;28;20584;-73
2023/12/21 03:42:25;;;;;;;2.90;0.70;;;11.70;99.90;;;;;;5028972;28;20270;-73
2023/12/21 03:44:50;;;;;;;3.07;1.00;;;11.70;99.90;;;;;;5028398;28;20287;-73
2023/12/21 03:47:16;;;;;;;1.43;0.70;;;11.70;99.90;;;;;;5028213;28;20194;-73
2023/12/21 03:49:42;;;;;;;1.40;0.73;;;11.80;99.90;;;;;;5028722;28;20635;-73
2023/12/21 03:52:08;;;;;;;2.40;0.70;;;11.80;99.90;;;;;;5003525;28;20584;-73
2023/12/21 03:54:34;;;;;;;1.70;0.70;;;11.80;99.90;;;;;;5030029;28;20611;-73
2023/12/21 03:57:00;;;;;;;1.60;0.80;;;11.80;99.90;;;;;;5029036;28;20608;-74
2023/12/21 03:59:26;;;;;;;2.67;0.80;;;11.80;99.90;;;;;;5030174;28;20654;-73
2023/12/21 04:01:52;;;;;;;1.93;0.80;;;11.80;99.90;;;;;;5033593;28;20587;-73
2023/12/21 04:04:18;;;;;;;2.53;0.88;;;11.80;99.90;;;;;;5015837;28;20217;-73
2023/12/21 04:06:43;;;;;;;1.60;0.90;;;11.90;99.90;;;;;;5032580;28;20229;-73
2023/12/21 04:09:09;;;;;;;2.17;0.90;;;11.90;99.90;;;;;;5033902;28;20584;-76
2023/12/21 04:11:35;;;;;;;3.10;0.80;;;11.90;99.90;;;;;;5033389;28;20264;-76
2023/12/21 04:14:01;;;;;;;2.20;0.90;;;11.90;99.90;;;;;;5032428;28;20186;-76
2023/12/21 04:16:26;;;;;;;1.83;0.80;;;11.90;99.90;;;;;;5032047;28;20212;-76
2023/12/21 04:18:52;;;;;;;1.50;0.80;;;11.90;99.90;;;;;;5016018;28;20200;-77
2023/12/21 04:21:18;;;;;;;1.60;0.87;;;11.90;99.90;;;;;;5031652;28;20178;-76
2023/12/21 04:23:44;;;;;;;1.93;0.70;;;11.80;99.90;;;;;;5052534;23;20711;-78
2023/12/21 04:26:18;;;;;;;1.50;0.80;;;11.90;99.90;;;;;;5051778;28;20940;-77
2023/12/21 04:28:44;;;;;;;3.50;0.63;;;11.80;99.90;;;;;;5007659;28;20200;-78
2023/12/21 04:31:09;;;;;;;1.97;0.60;;;11.80;99.90;;;;;;5033966;28;20981;-78
2023/12/21 04:33:39;;;;;;;2.13;0.60;;;11.80;99.90;;;;;;5034990;28;20206;-77
2023/12/21 04:36:05;;;;;;;3.33;0.70;;;11.80;99.90;;;;;;5040655;28;20667;-77
2023/12/21 04:38:30;;;;;;;1.40;0.60;;;11.80;99.90;;;;;;5050554;28;20196;-77
2023/12/21 04:40:56;;;;;;;1.30;0.67;;;11.80;99.90;;;;;;5033363;28;20683;-77
2023/12/21 04:43:22;;;;;;;1.60;0.70;;;11.80;99.90;;;;;;5017682;28;20193;-77
2023/12/21 04:45:48;;;;;;;2.53;0.70;;;11.80;99.90;;;;;;5017598;28;20236;-77
2023/12/21 04:48:13;;;;;;;1.30;0.70;;;11.80;99.90;;;;;;4999678;28;20863;-77
2023/12/21 04:50:39;;;;;;;1.80;0.70;;;11.80;99.90;;;;;;5023882;28;20174;-77
2023/12/21 04:53:04;;;;;;;2.10;0.83;;;11.80;99.90;;;;;;4998776;28;20177;-77
2023/12/21 04:55:30;;;;;;;1.60;1.00;;;11.70;99.90;;;;;;4998972;28;20178;-77
2023/12/21 04:57:56;;;;;;;1.17;0.57;;;11.80;99.90;;;;;;5015306;28;20212;-78
2023/12/21 05:00:21;;;;;;;1.53;0.60;;;11.70;99.90;;;;;;5015653;28;20177;-77
2023/12/21 05:02:47;;;;;;;1.43;0.73;;;11.80;99.90;;;;;;5014901;28;20242;-77
2023/12/21 05:05:13;;;;;;;1.30;0.60;;;11.70;99.90;;;;;;5034843;28;20204;-77
2023/12/21 05:07:39;;;;;;;1.20;0.60;;;11.80;99.90;;;;;;5015761;28;20281;-77
2023/12/21 05:10:05;;;;;;;1.87;0.80;;;11.70;99.90;;;;;;5015670;28;20659;-77
2023/12/21 05:12:31;;;;;;;2.08;0.60;;;11.70;99.90;;;;;;5030493;28;20291;-77
2023/12/21 05:14:56;;;;;;;1.30;0.70;;;11.70;99.90;;;;;;5032872;28;20266;-77
2023/12/21 05:17:23;;;;;;;1.60;0.73;;;11.70;99.90;;;;;;5015049;28;20173;-77
2023/12/21 05:19:48;;;;;;;3.05;0.75;;;11.70;99.90;;;;;;5021944;28;20707;-77
2023/12/21 05:22:14;;;;;;;1.80;0.70;;;11.70;99.90;;;;;;5001782;28;20220;-77
2023/12/21 05:24:40;;;;;;;1.30;0.70;;;11.70;99.90;;;;;;5031104;28;20205;-77
2023/12/21 05:27:06;;;;;;;1.50;0.60;;;11.70;99.90;;;;;;5014842;28;20212;-77
2023/12/21 05:29:31;;;;;;;1.93;0.60;;;11.70;99.90;;;;;;5032721;28;20182;-77
2023/12/21 05:31:57;;;;;;;1.63;0.60;;;11.70;99.90;;;;;;4998140;28;20584;-77
2023/12/21 05:34:23;;;;;;;1.63;0.70;;;11.70;99.90;;;;;;5041276;28;20239;-77
2023/12/21 05:36:49;;;;;;;3.20;0.70;;;11.70;99.90;;;;;;5040237;28;20170;-77
2023/12/21 05:39:15;;;;;;;1.55;0.60;;;11.70;99.90;;;;;;5015268;28;20209;-77
2023/12/21 05:41:41;;;;;;;1.50;0.63;;;11.70;99.90;;;;;;5033055;28;20213;-78
2023/12/21 05:44:07;;;;;;;1.70;0.80;;;11.70;99.90;;;;;;5032537;28;20205;-77
2023/12/21 05:46:32;;;;;;;1.93;0.60;;;11.70;99.90;;;;;;5041857;28;20188;-78
2023/12/21 05:48:58;;;;;;;1.50;0.80;;;11.70;99.90;;;;;;5042613;28;20610;-77
2023/12/21 05:51:24;;;;;;;2.00;0.70;;;11.70;99.90;;;;;;5046873;28;20186;-77
2023/12/21 05:53:50;;;;;;;2.50;0.80;;;11.70;99.90;;;;;;5014757;28;21272;-78
2023/12/21 05:56:15;;;;;;;2.80;0.80;;;11.70;99.90;;;;;;4998314;28;20185;-78
2023/12/21 05:58:41;;;;;;;2.57;0.80;;;11.70;99.90;;;;;;5013078;28;20177;-78
2023/12/21 06:01:08;;;;;;;3.30;1.30;;;11.70;99.90;;;;;;5039269;28;20224;-77
2023/12/21 06:03:34;;;;;;;4.55;1.00;;;11.70;99.90;;;;;;5042096;28;20213;-78
2023/12/21 06:06:00;;;;;;;3.00;1.10;;;11.70;99.90;;;;;;5013956;28;20182;-78
2023/12/21 06:08:26;;;;;;;4.47;1.40;;;11.70;99.90;;;;;;5032661;28;20576;-78
2023/12/21 06:10:52;;;;;;;3.20;1.13;;;11.80;99.90;;;;;;5050911;28;20196;-78
2023/12/21 06:13:17;;;;;;;4.07;1.93;;;11.80;99.90;;;;;;5040110;28;20588;-78
2023/12/21 06:15:43;;;;;;;3.93;1.20;;;11.80;99.90;;;;;;5022983;28;20628;-78
2023/12/21 06:18:09;;;;;;;4.03;1.20;;;11.80;99.90;;;;;;5022672;28;20186;-77
2023/12/21 06:20:35;;;;;;;4.73;1.10;;;11.80;99.90;;;;;;5022863;28;20655;-77
2023/12/21 06:23:02;;;;;;;3.93;0.90;;;11.90;99.90;;;;;;5033147;28;20572;-77
2023/12/21 06:25:29;;;;;;;4.45;1.08;;;11.90;99.90;;;;;;5021407;28;20644;-77
2023/12/21 06:27:55;;;;;;;6.65;1.00;;;11.90;99.90;;;;;;4982479;28;20169;-77
2023/12/21 06:30:21;;;;;;;2.50;0.90;;;11.90;99.90;;;;;;5040088;28;20180;-77
2023/12/21 06:32:47;;;;;;;2.93;1.00;;;12.00;99.90;;;;;;5043427;28;20683;-77
2023/12/21 06:35:13;;;;;;;3.80;1.00;;;11.90;99.90;;;;;;5027546;28;20198;-77
2023/12/21 06:37:38;;;;;;;2.10;1.03;;;12.00;99.90;;;;;;5014193;28;20178;-77
2023/12/21 06:40:05;;;;;;;2.17;1.43;;;12.00;99.90;;;;;;5035710;28;20683;-77
2023/12/21 06:42:31;;;;;;;4.30;1.10;;;12.00;99.90;;;;;;5015369;28;20165;-76
2023/12/21 06:44:57;;;;;;;3.87;1.10;;;12.10;99.90;;;;;;5039848;28;20678;-76
2023/12/21 06:47:23;;;;;;;2.17;0.97;;;12.10;99.90;;;;;;5013243;28;20992;-77
2023/12/21 06:49:48;;;;;;;8.80;1.53;;;12.10;99.90;;;;;;4997541;28;20162;-78
2023/12/21 06:52:14;;;;;;;6.93;1.63;;;12.10;99.90;;;;;;5013501;28;20182;-76
2023/12/21 06:54:40;;;;;;;3.93;1.73;;;12.20;99.90;;;;;;5014556;28;20225;-76
2023/12/21 06:57:05;;;;;;;5.80;1.30;;;12.10;99.90;;;;;;5031904;28;20183;-77
2023/12/21 06:59:31;;;;;;;6.37;1.50;;;12.10;99.90;;;;;;5015937;28;20201;-76
2023/12/21 07:01:57;;;;;;;2.50;1.00;;;12.10;99.90;;;;;;5034173;28;20189;-76
2023/12/21 07:04:22;;;;;;;3.43;1.10;;;12.10;99.90;;;;;;5017744;28;20572;-76
2023/12/21 07:06:48;;;;;;;5.53;1.27;;;12.10;99.90;;;;;;5036319;28;20180;-76
2023/12/21 07:09:15;;;;;;;5.30;1.20;;;12.10;99.90;;;;;;5038651;28;20185;-76
2023/12/21 07:11:41;;;;;;;3.20;1.17;;;12.10;99.90;;;;;;5030920;28;20182;-76
2023/12/21 07:14:07;;;;;;;3.70;1.20;;;12.10;99.90;;;;;;5013596;28;20627;-76
2023/12/21 07:16:33;;;;;;;3.03;1.40;;;12.10;99.90;;;;;;5034799;28;20174;-76
2023/12/21 07:19:01;;;;;;;2.93;1.23;;;12.10;99.90;;;;;;5039260;28;20243;-76
2023/12/21 07:21:28;;;;;;;4.45;1.23;;;12.10;99.90;;;;;;5013833;28;20182;-74
2023/12/21 07:23:54;;;;;;;4.35;1.95;;;12.10;99.90;;;;;;5041005;28;20238;-74
2023/12/21 07:26:20;;;;;;;6.50;1.47;;;12.20;99.90;;;;;;5032516;28;20634;-75
2023/12/21 07:28:45;;;;;;;4.57;1.60;;;12.10;99.90;;;;;;5063199;28;20549;-75
2023/12/21 07:31:13;;;;;;;4.30;1.40;;;12.10;99.90;;;;;;5014273;28;20182;-75
2023/12/21 07:33:39;;;;;;;8.82;1.85;;;12.10;99.90;;;;;;5029853;28;20606;-75
2023/12/21 07:36:07;;;;;;;3.95;1.55;;;12.10;99.90;;;;;;5012465;28;20186;-75
2023/12/21 07:38:33;;;;;;;5.28;1.88;;;12.20;99.90;;;;;;5012532;28;20188;-75
2023/12/21 07:40:59;;;;;;;3.78;1.10;;;12.20;99.90;;;;;;5012176;28;20582;-74
2023/12/21 07:43:25;;;;;;;7.80;1.53;;;12.20;99.90;;;;;;5038383;28;20244;-75
2023/12/21 07:45:52;;;;;;;5.78;1.50;;;12.10;99.90;;;;;;5012748;28;20193;-75
2023/12/21 07:48:18;;;;;;;4.15;1.35;;;12.20;99.90;;;;;;5038484;28;20185;-75
2023/12/21 07:50:44;;;;;;;4.03;1.37;;;12.10;99.90;;;;;;5021182;28;20546;-75
2023/12/21 07:53:10;;;;;;;3.00;1.23;;;12.10;99.90;;;;;;5014559;28;20585;-75
2023/12/21 07:55:35;;;;;;;3.93;1.80;;;12.20;99.90;;;;;;5038470;28;21137;-75
2023/12/21 07:58:01;;;;;;;8.57;2.83;;;12.20;99.90;;;;;;5011942;28;20217;-75
2023/12/21 08:00:27;;;;;;;5.10;1.30;;;12.20;99.90;;;;;;5030502;28;20188;-77
2023/12/21 08:02:53;;;;;;;3.93;1.10;;;12.20;99.90;;;;;;5011887;28;20216;-76
2023/12/21 08:05:22;;;;;;;4.83;1.13;;;12.20;99.90;;;;;;5045087;28;20607;-76
2023/12/21 08:07:49;;;;;;;4.28;1.35;;;12.30;99.90;;;;;;5030967;28;20180;-76
2023/12/21 08:10:15;;;;;;;5.40;1.40;;;12.30;99.90;;;;;;5030343;28;20193;-74
2023/12/21 08:12:41;;;;;;;6.47;1.40;;;12.30;99.90;;;;;;5011715;28;20584;-75
2023/12/21 08:15:09;;;;;;;5.30;1.53;;;12.30;99.90;;;;;;5029941;28;20201;-76
2023/12/21 08:17:36;;;;;;;5.20;1.57;;;12.40;99.90;;;;;;5028274;28;20598;-76
2023/12/21 08:20:04;;;;;;;5.23;1.63;;;12.40;99.90;;;;;;5011878;28;20610;-75
2023/12/21 08:22:30;;;;;;;7.10;2.40;;;12.40;99.90;;;;;;5011665;28;20588;-75
2023/12/21 08:24:57;;;;;;;3.60;1.70;;;12.50;99.90;;;;;;5029606;28;20201;-75
2023/12/21 08:27:24;;;;;;;7.70;1.50;;;12.50;99.90;;;;;;5011999;28;21016;-75
2023/12/21 08:29:50;;;;;;;5.03;1.37;;;12.50;99.90;;;;;;5042407;28;20729;-76
2023/12/21 08:32:18;;;;;;;6.05;1.30;;;12.60;99.90;;;;;;5019433;28;20606;-76
2023/12/21 08:34:44;;;;;;;5.30;1.10;;;12.60;99.90;;;;;;5031228;28;20193;-75
2023/12/21 08:37:10;;;;;;;6.47;1.20;;;12.60;99.90;;;;;;5032299;28;20589;-75
2023/12/21 08:39:36;;;;;;;2.63;0.80;;;12.60;99.90;;;;;;5020767;28;20958;-76
2023/12/21 08:42:02;;;;;;;2.80;1.10;;;12.70;99.90;;;;;;5018871;28;20588;-75
2023/12/21 08:44:28;;;;;;;4.73;1.20;;;12.70;99.90;;;;;;5011830;28;20655;-76
2023/12/21 08:46:54;;;;;;;2.40;1.03;;;12.70;99.90;;;;;;5037971;28;20181;-76
2023/12/21 08:49:20;;;;;;;3.20;1.67;;;12.70;99.90;;;;;;4999053;28;21126;-76
2023/12/21 08:51:46;;;;;;;5.27;1.00;;;12.70;99.90;;;;;;5023390;28;21220;-76
2023/12/21 08:54:13;;;;;;;2.50;0.97;;;12.70;99.90;;;;;;5016221;28;20206;-76
2023/12/21 08:56:44;;;;;;;5.33;1.47;;;12.80;99.90;;;;;;5015746;28;20209;-76
2023/12/21 08:59:10;;;;;;;3.67;1.40;;;12.70;99.90;;;;;;5015592;28;20627;-76
2023/12/21 09:01:37;;;;;;;2.27;0.90;;;12.70;99.90;;;;;;5015118;28;20624;-75
2023/12/21 09:04:04;;;;;;;3.67;0.90;;;12.70;99.90;;;;;;5040360;28;20643;-77
2023/12/21 09:06:31;;;;;;;3.90;1.50;;;12.60;99.90;;;;;;5017899;28;20600;-75
2023/12/21 09:08:57;;;;;;;2.43;0.97;;;12.60;99.90;;;;;;5015395;28;20592;-75
2023/12/21 09:11:23;;;;;;;3.40;1.10;;;12.60;99.90;;;;;;5022764;28;20576;-74
2023/12/21 09:13:49;;;;;;;2.73;0.90;;;12.50;99.90;;;;;;5041204;28;21191;-74
2023/12/21 09:16:17;;;;;;;3.90;1.03;;;12.50;99.90;;;;;;5015187;28;20620;-75
2023/12/21 09:18:46;;;;;;;3.67;1.20;;;12.50;99.90;;;;;;4998591;28;20654;-74
2023/12/21 09:21:12;;;;;;;2.37;1.17;;;12.50;99.90;;;;;;5014685;28;20590;-75
2023/12/21 09:23:39;;;;;;;3.30;1.23;;;12.50;99.90;;;;;;5032558;28;20651;-76
2023/12/21 09:26:08;;;;;;;5.40;1.00;;;12.50;99.90;;;;;;5026978;28;21168;-75
2023/12/21 09:28:37;;;;;;;4.03;1.20;;;12.40;99.90;;;;;;5018402;28;20596;-75
2023/12/21 09:31:06;;;;;;;2.53;2.03;;;12.40;99.90;;;;;;5035278;28;20941;-75
2023/12/21 09:33:36;;;;;;;2.67;0.87;;;12.40;99.90;;;;;;5015177;28;20673;-75
2023/12/21 09:36:03;;;;;;;2.87;0.87;;;12.40;99.90;;;;;;5015002;28;21137;-75
2023/12/21 09:38:31;;;;;;;4.30;1.00;;;12.40;99.90;;;;;;5023067;28;20596;-75
2023/12/21 09:40:57;;;;;;;2.27;0.90;;;12.40;99.90;;;;;;5031451;28;20580;-75
2023/12/21 09:43:23;;;;;;;2.90;1.00;;;12.40;99.90;;;;;;5033574;28;20628;-75
2023/12/21 09:45:51;;;;;;;2.80;1.03;;;12.40;99.90;;;;;;5000644;28;21181;-75
2023/12/21 09:48:18;;;;;;;2.17;0.80;;;12.30;99.90;;;;;;5019616;28;20603;-75
2023/12/21 09:50:45;;;;;;;2.60;1.00;;;12.30;99.90;;;;;;5024883;28;20592;-74
2023/12/21 09:53:15;;;;;;;1.57;0.70;;;12.30;99.90;;;;;;5013743;28;20588;-74
2023/12/21 09:55:46;;;;;;;3.90;1.00;;;12.30;99.90;;;;;;5014366;28;20624;-74
2023/12/21 09:58:12;;;;;;;4.30;0.83;;;12.30;99.90;;;;;;4997813;28;20185;-74
2023/12/21 10:00:39;;;;;;;1.73;0.80;;;12.30;99.90;;;;;;5014389;28;20631;-73
2023/12/21 10:03:05;;;;;;;4.83;0.93;;;12.30;99.90;;;;;;5041756;28;20788;-76
2023/12/21 10:05:32;;;;;;;3.17;1.27;;;12.30;99.90;;;;;;5036360;28;20605;-76
2023/12/21 10:07:59;;;;;;;2.63;1.80;;;12.30;99.90;;;;;;5031549;28;20580;-75
2023/12/21 10:10:28;;;;;;;1.57;0.90;;;12.30;99.90;;;;;;5014050;28;20683;-75
2023/12/21 10:12:53;;;;;;;3.00;1.03;;;12.30;99.90;;;;;;5029674;28;20725;-75
2023/12/21 10:15:20;;;;;;;4.60;1.47;;;12.30;99.90;;;;;;5014038;28;20723;-75
2023/12/21 10:17:47;;;;;;;2.43;1.40;;;12.30;99.90;;;;;;5031314;28;20267;-75
2023/12/21 10:20:13;;;;;;;2.10;0.70;;;12.30;99.90;;;;;;5014931;28;20628;-75
2023/12/21 10:22:43;;;;;;;1.30;0.60;;;12.30;99.90;;;;;;5013977;28;20182;-75
2023/12/21 10:25:10;;;;;;;1.93;0.70;;;12.40;99.90;;;;;;5021722;28;21049;-76
2023/12/21 10:27:36;;;;;;;2.77;0.80;;;12.40;99.90;;;;;;5021396;28;21137;-75
2023/12/21 10:30:04;;;;;;;1.57;0.60;;;12.40;99.90;;;;;;5021456;28;20577;-75
2023/12/21 10:32:30;;;;;;;1.30;0.60;;;12.40;99.90;;;;;;5002210;28;20616;-75
2023/12/21 10:34:58;;;;;;;2.00;0.70;;;12.30;99.90;;;;;;5034675;28;21078;-75
2023/12/21 10:37:24;;;;;;;1.37;0.53;;;12.30;99.90;;;;;;5002510;28;20747;-75
2023/12/21 10:39:51;;;;;;;1.70;0.50;;;12.40;99.90;;;;;;5031538;28;20638;-74
2023/12/21 10:42:17;;;;;;;3.25;0.60;;;12.40;99.90;;;;;;4996771;28;20687;-74
2023/12/21 10:44:47;;;;;;;1.70;0.70;;;12.30;99.90;;;;;;5030890;28;20205;-74
2023/12/21 10:47:15;;;;;;;2.10;1.42;;;12.40;99.90;;;;;;5043989;28;20189;-74
2023/12/21 10:49:42;;;;;;;1.30;0.63;;;12.40;99.90;;;;;;5036681;28;20181;-75
2023/12/21 10:52:10;;;;;;;1.40;0.60;;;12.40;99.90;;;;;;5028668;28;20585;-74
2023/12/21 10:54:37;;;;;;;1.27;0.67;;;12.40;99.90;;;;;;5013402;28;21035;-74
2023/12/21 10:57:04;;;;;;;1.30;0.70;;;12.40;99.90;;;;;;5034585;28;20586;-74
2023/12/21 10:59:32;;;;;;;2.03;0.88;;;12.40;99.90;;;;;;5047286;28;20181;-74
2023/12/21 11:01:58;;;;;;;2.75;1.30;;;12.40;99.90;;;;;;5015013;28;20593;-75
2023/12/21 11:04:24;;;;;;;2.90;1.30;;;12.40;99.90;;;;;;5037050;28;20236;-77
2023/12/21 11:06:50;;;;;;;2.47;1.40;;;12.40;99.90;;;;;;5012774;28;20589;-76
2023/12/21 11:09:19;;;;;;;2.47;0.73;;;12.40;99.90;;;;;;5004196;28;20617;-76
2023/12/21 11:11:46;;;;;;;2.80;0.70;;;12.50;99.90;;;;;;5045118;28;20184;-77
2023/12/21 11:14:12;;;;;;;1.50;0.70;;;12.40;99.90;;;;;;5032708;28;20220;-77
2023/12/21 11:16:49;;;;;;;1.70;0.70;;;12.40;99.90;;;;;;5016313;28;20955;-77
2023/12/21 11:19:22;;;;;;;1.90;0.70;;;12.40;99.90;;;;;;5033318;28;20572;-77
2023/12/21 11:21:48;;;;;;;3.40;0.77;;;12.50;99.90;;;;;;5046611;28;20584;-77
2023/12/21 11:24:21;;;;;;;3.00;1.17;;;12.50;99.90;;;;;;5039486;28;20647;-76
2023/12/21 11:26:49;;;;;;;2.97;1.00;;;12.40;99.90;;;;;;5014186;28;20620;-77
2023/12/21 11:29:21;;;;;;;3.10;1.00;;;12.50;99.90;;;;;;5013863;28;20595;-77
2023/12/21 11:31:46;;;;;;;2.53;0.90;;;12.50;99.90;;;;;;5012714;28;20592;-77
2023/12/21 11:34:14;;;;;;;1.67;0.90;;;12.50;99.90;;;;;;5029337;28;20984;-77
2023/12/21 11:36:40;;;;;;;1.87;1.00;;;12.50;99.90;;;;;;5016201;28;20213;-77
2023/12/21 11:39:15;;;;;;;2.63;0.90;;;12.60;99.90;;;;;;5030963;28;20604;-77
2023/12/21 11:41:57;;;;;;;1.90;1.00;;;12.60;99.90;;;;;;5012788;28;20638;-77
2023/12/21 11:44:23;;;;;;;1.87;1.10;;;12.60;99.90;;;;;;5018541;28;20204;-75
2023/12/21 11:46:55;;;;;;;2.40;1.20;;;12.70;99.90;;;;;;5032669;28;20588;-76
2023/12/21 11:49:24;;;;;;;3.30;1.30;;;12.70;99.90;;;;;;5012981;28;20580;-75
2023/12/21 11:51:51;;;;;;;4.03;1.53;;;12.70;99.90;;;;;;5012364;28;20580;-76
2023/12/21 11:54:22;;;;;;;3.33;1.50;;;12.80;99.90;;;;;;5032302;28;20623;-76
2023/12/21 11:56:53;;;;;;;6.23;1.20;;;12.80;99.90;;;;;;5004433;28;20587;-75
2023/12/21 11:59:23;;;;;;;3.30;1.50;;;12.80;99.90;;;;;;5012618;28;20957;-76
2023/12/21 12:01:49;;;;;;;2.17;1.10;;;12.80;99.90;;;;;;5012385;28;20615;-76
2023/12/21 12:04:15;;;;;;;2.83;1.00;;;12.80;99.90;;;;;;5012768;28;20749;-77
2023/12/21 12:06:46;;;;;;;3.50;0.97;;;12.80;99.90;;;;;;5013100;28;20681;-76
2023/12/21 12:09:12;;;;;;;4.80;1.50;;;12.90;99.90;;;;;;5024809;28;20674;-76
2023/12/21 12:11:39;;;;;;;4.13;1.10;;;12.90;99.90;;;;;;5032626;28;20615;-76
2023/12/21 12:14:05;;;;;;;4.37;1.17;;;13.00;99.90;;;;;;5012898;28;20674;-76
2023/12/21 12:16:32;;;;;;;3.30;1.40;;;12.90;99.90;;;;;;5030225;28;21137;-77
2023/12/21 12:18:58;;;;;;;4.10;1.93;;;12.90;99.90;;;;;;5038527;28;20208;-76
2023/12/21 12:21:24;;;;;;;4.47;1.60;;;13.00;99.90;;;;;;5032522;28;21069;-75
2023/12/21 12:23:50;;;;;;;5.90;2.00;;;13.00;99.90;;;;;;5042029;28;20675;-76
2023/12/21 12:26:17;;;;;;;4.50;1.47;;;13.00;99.90;;;;;;5016622;28;20607;-76
2023/12/21 12:28:45;;;;;;;3.40;1.43;;;13.10;99.90;;;;;;5033964;28;20178;-77
2023/12/21 12:31:15;;;;;;;3.00;1.40;;;13.20;99.90;;;;;;5027458;28;21186;-76
2023/12/21 12:33:40;;;;;;;3.20;1.60;;;13.20;99.90;;;;;;5040181;28;20715;-76
2023/12/21 12:36:07;;;;;;;2.20;1.30;;;13.20;99.90;;;;;;5034582;28;20683;-76
2023/12/21 12:38:33;;;;;;;2.93;1.60;;;13.30;99.90;;;;;;5034001;28;20531;-77
2023/12/21 12:40:59;;;;;;;3.57;1.60;;;13.30;99.90;;;;;;4999194;28;20607;-76
2023/12/21 12:43:30;;;;;;;3.67;1.83;;;13.40;99.90;;;;;;5020955;28;20639;-76